Port Colborne, Canada
Current Conditions -  °F | °C
As of 7:53 PM on Wednesday 22 Oct 2014 (Local Time) from KIAG Reporting Station
Broken Clouds Broken Clouds  
Wind Chill:   Ceiling: 3600
Heat Index:   Visibility: 10mi
Dew Point:   Wind: 0mph
Humidity: 83%   Direction: NA
Pressure: 30.22"   Gusts: NA
Location:  42.89°N, 79.25°W
Report Text: KIAG 222353Z 00000KT 10SM BKN036 08/05 A3022 RMK AO2 SLP241 T00780050 10094 20067 53001
Loading
Personal Weather Stations






























Interactive Weather Map
Tropical Storm Tracking
New forecast layout! Learn more

10-Day Weather Forecast

Advertisements
Track Severe Weather on mobile